sensor_id;sensor_type;location;lat;lon;timestamp;pressure;altitude;pressure_sealevel;temperature;humidity
12182;BME280;6154;51.550;12.138;2023-03-04T00:01:33;101059.19;;;6.96;61.90
12182;BME280;6154;51.550;12.138;2023-03-04T00:04:01;101054.97;;;7.18;60.78
12182;BME280;6154;51.550;12.138;2023-03-04T00:06:31;101047.56;;;7.31;59.91
12182;BME280;6154;51.550;12.138;2023-03-04T00:08:59;101054.06;;;7.19;60.64
12182;BME280;6154;51.550;12.138;2023-03-04T00:11:30;101058.41;;;6.92;61.67
12182;BME280;6154;51.550;12.138;2023-03-04T00:13:58;101058.09;;;7.03;61.28
12182;BME280;6154;51.550;12.138;2023-03-04T00:16:26;101046.56;;;7.07;60.74
12182;BME280;6154;51.550;12.138;2023-03-04T00:18:55;101056.69;;;7.19;59.94
12182;BME280;6154;51.550;12.138;2023-03-04T00:21:23;101054.56;;;7.04;60.62
12182;BME280;6154;51.550;12.138;2023-03-04T00:23:53;101052.56;;;7.12;60.25
12182;BME280;6154;51.550;12.138;2023-03-04T00:26:21;101052.34;;;7.18;59.94
12182;BME280;6154;51.550;12.138;2023-03-04T00:28:49;101054.06;;;7.19;60.02
12182;BME280;6154;51.550;12.138;2023-03-04T00:31:18;101051.34;;;7.22;59.89
12182;BME280;6154;51.550;12.138;2023-03-04T00:33:46;101045.53;;;7.12;60.38
12182;BME280;6154;51.550;12.138;2023-03-04T00:36:14;101037.84;;;7.05;60.74
12182;BME280;6154;51.550;12.138;2023-03-04T00:38:42;101038.72;;;7.05;60.73
12182;BME280;6154;51.550;12.138;2023-03-04T00:41:12;101033.56;;;6.73;61.38
12182;BME280;6154;51.550;12.138;2023-03-04T00:43:40;101033.94;;;6.88;60.75
12182;BME280;6154;51.550;12.138;2023-03-04T00:46:09;101031.69;;;7.06;60.09
12182;BME280;6154;51.550;12.138;2023-03-04T00:48:37;101034.22;;;7.09;59.74
12182;BME280;6154;51.550;12.138;2023-03-04T00:51:05;101028.09;;;7.08;59.74
12182;BME280;6154;51.550;12.138;2023-03-04T00:53:33;101035.00;;;6.83;60.96
12182;BME280;6154;51.550;12.138;2023-03-04T00:56:02;101026.87;;;6.90;60.40
12182;BME280;6154;51.550;12.138;2023-03-04T00:58:32;101028.88;;;6.82;60.61
12182;BME280;6154;51.550;12.138;2023-03-04T01:01:00;101023.81;;;6.76;60.64
12182;BME280;6154;51.550;12.138;2023-03-04T01:03:28;101018.53;;;6.76;60.63
12182;BME280;6154;51.550;12.138;2023-03-04T01:05:58;101020.00;;;6.86;60.13
12182;BME280;6154;51.550;12.138;2023-03-04T01:08:26;101023.25;;;6.65;60.71
12182;BME280;6154;51.550;12.138;2023-03-04T01:10:55;101017.84;;;6.70;60.68
12182;BME280;6154;51.550;12.138;2023-03-04T01:13:23;101010.13;;;6.65;60.41
12182;BME280;6154;51.550;12.138;2023-03-04T01:15:52;101010.47;;;6.53;60.77
12182;BME280;6154;51.550;12.138;2023-03-04T01:18:22;100997.06;;;6.62;60.04
12182;BME280;6154;51.550;12.138;2023-03-04T01:20:50;101001.91;;;6.46;60.47
12182;BME280;6154;51.550;12.138;2023-03-04T01:23:18;100998.25;;;6.52;60.22
12182;BME280;6154;51.550;12.138;2023-03-04T01:25:47;100994.06;;;6.45;60.38
12182;BME280;6154;51.550;12.138;2023-03-04T01:28:15;100993.47;;;6.35;60.80
12182;BME280;6154;51.550;12.138;2023-03-04T01:30:43;100992.59;;;6.34;60.80
12182;BME280;6154;51.550;12.138;2023-03-04T01:33:13;100991.53;;;6.42;60.20
12182;BME280;6154;51.550;12.138;2023-03-04T01:35:41;100990.13;;;6.28;60.99
12182;BME280;6154;51.550;12.138;2023-03-04T01:38:09;100982.78;;;6.40;60.13
12182;BME280;6154;51.550;12.138;2023-03-04T01:40:38;100982.72;;;6.43;60.01
12182;BME280;6154;51.550;12.138;2023-03-04T01:43:10;100986.16;;;6.45;60.07
12182;BME280;6154;51.550;12.138;2023-03-04T01:45:42;100988.00;;;6.43;60.58
12182;BME280;6154;51.550;12.138;2023-03-04T01:48:16;100980.59;;;6.55;60.14
12182;BME280;6154;51.550;12.138;2023-03-04T01:50:45;100973.47;;;6.59;60.23
12182;BME280;6154;51.550;12.138;2023-03-04T01:53:19;100966.13;;;6.70;59.60
12182;BME280;6154;51.550;12.138;2023-03-04T01:55:49;100963.59;;;6.67;60.03
12182;BME280;6154;51.550;12.138;2023-03-04T01:58:17;100959.06;;;6.72;60.04
12182;BME280;6154;51.550;12.138;2023-03-04T02:00:45;100959.25;;;6.66;60.69
12182;BME280;6154;51.550;12.138;2023-03-04T02:03:16;100961.59;;;6.75;60.20
12182;BME280;6154;51.550;12.138;2023-03-04T02:05:48;100950.16;;;6.76;60.12
12182;BME280;6154;51.550;12.138;2023-03-04T02:08:19;100956.38;;;6.74;60.83
12182;BME280;6154;51.550;12.138;2023-03-04T02:10:48;100956.06;;;6.84;60.12
12182;BME280;6154;51.550;12.138;2023-03-04T02:13:18;100960.28;;;6.88;59.92
12182;BME280;6154;51.550;12.138;2023-03-04T02:15:46;100955.09;;;6.87;60.19
12182;BME280;6154;51.550;12.138;2023-03-04T02:18:18;100952.13;;;6.98;59.62
12182;BME280;6154;51.550;12.138;2023-03-04T02:20:57;100943.25;;;7.00;59.54
12182;BME280;6154;51.550;12.138;2023-03-04T02:23:32;100943.22;;;7.02;59.90
12182;BME280;6154;51.550;12.138;2023-03-04T02:26:14;100937.88;;;7.05;59.73
12182;BME280;6154;51.550;12.138;2023-03-04T02:28:44;100933.69;;;6.98;60.62
12182;BME280;6154;51.550;12.138;2023-03-04T02:31:21;100930.88;;;7.04;60.17
12182;BME280;6154;51.550;12.138;2023-03-04T02:33:51;100926.41;;;7.06;60.22
12182;BME280;6154;51.550;12.138;2023-03-04T02:36:21;100929.19;;;7.01;60.34
12182;BME280;6154;51.550;12.138;2023-03-04T02:38:52;100929.81;;;7.09;59.98
12182;BME280;6154;51.550;12.138;2023-03-04T02:41:24;100931.34;;;7.16;59.72
12182;BME280;6154;51.550;12.138;2023-03-04T02:43:54;100918.06;;;7.19;59.58
12182;BME280;6154;51.550;12.138;2023-03-04T02:46:23;100921.41;;;7.25;59.51
12182;BME280;6154;51.550;12.138;2023-03-04T02:48:51;100914.53;;;7.20;59.78
12182;BME280;6154;51.550;12.138;2023-03-04T02:51:20;100914.31;;;7.27;59.43
12182;BME280;6154;51.550;12.138;2023-03-04T02:53:48;100908.37;;;7.22;59.90
12182;BME280;6154;51.550;12.138;2023-03-04T02:56:16;100908.00;;;7.32;59.39
12182;BME280;6154;51.550;12.138;2023-03-04T02:58:46;100915.94;;;7.31;59.48
12182;BME280;6154;51.550;12.138;2023-03-04T03:01:14;100906.25;;;7.31;59.34
12182;BME280;6154;51.550;12.138;2023-03-04T03:03:43;100902.63;;;7.35;59.48
12182;BME280;6154;51.550;12.138;2023-03-04T03:06:11;100903.44;;;7.37;59.43
12182;BME280;6154;51.550;12.138;2023-03-04T03:08:39;100895.66;;;7.34;59.46
12182;BME280;6154;51.550;12.138;2023-03-04T03:11:07;100896.28;;;7.41;59.15
12182;BME280;6154;51.550;12.138;2023-03-04T03:13:36;100892.66;;;7.45;59.08
12182;BME280;6154;51.550;12.138;2023-03-04T03:16:06;100893.69;;;7.39;59.54
12182;BME280;6154;51.550;12.138;2023-03-04T03:18:34;100909.97;;;7.26;59.96
12182;BME280;6154;51.550;12.138;2023-03-04T03:21:04;100904.84;;;7.47;59.23
12182;BME280;6154;51.550;12.138;2023-03-04T03:23:33;100904.63;;;7.54;58.95
12182;BME280;6154;51.550;12.138;2023-03-04T03:26:01;100900.28;;;7.53;59.15
12182;BME280;6154;51.550;12.138;2023-03-04T03:28:30;100899.19;;;7.58;58.78
12182;BME280;6154;51.550;12.138;2023-03-04T03:30:59;100900.28;;;7.53;59.25
12182;BME280;6154;51.550;12.138;2023-03-04T03:33:32;100878.81;;;7.38;59.68
12182;BME280;6154;51.550;12.138;2023-03-04T03:36:00;100879.53;;;7.43;59.97
12182;BME280;6154;51.550;12.138;2023-03-04T03:38:29;100885.28;;;7.55;59.39
12182;BME280;6154;51.550;12.138;2023-03-04T03:40:57;100881.69;;;7.57;59.29
12182;BME280;6154;51.550;12.138;2023-03-04T03:43:25;100881.47;;;7.63;59.00
12182;BME280;6154;51.550;12.138;2023-03-04T03:45:53;100874.69;;;7.56;59.27
12182;BME280;6154;51.550;12.138;2023-03-04T03:48:22;100876.28;;;7.60;59.30
12182;BME280;6154;51.550;12.138;2023-03-04T03:50:51;100877.75;;;7.69;58.91
12182;BME280;6154;51.550;12.138;2023-03-04T03:53:19;100878.66;;;7.68;58.99
12182;BME280;6154;51.550;12.138;2023-03-04T03:55:47;100867.91;;;7.74;58.75
12182;BME280;6154;51.550;12.138;2023-03-04T03:58:16;100874.78;;;7.78;58.62
12182;BME280;6154;51.550;12.138;2023-03-04T04:00:44;100878.34;;;7.77;58.62
12182;BME280;6154;51.550;12.138;2023-03-04T04:03:13;100867.00;;;7.75;58.77
12182;BME280;6154;51.550;12.138;2023-03-04T04:05:42;100875.56;;;7.82;58.53
12182;BME280;6154;51.550;12.138;2023-03-04T04:08:13;100865.69;;;7.87;58.35
12182;BME280;6154;51.550;12.138;2023-03-04T04:10:42;100871.81;;;7.87;58.40
12182;BME280;6154;51.550;12.138;2023-03-04T04:13:10;100867.47;;;7.86;58.47
12182;BME280;6154;51.550;12.138;2023-03-04T04:15:38;100863.78;;;7.90;58.41
12182;BME280;6154;51.550;12.138;2023-03-04T04:18:07;100867.25;;;7.92;58.43
12182;BME280;6154;51.550;12.138;2023-03-04T04:20:36;100861.28;;;7.87;58.50
12182;BME280;6154;51.550;12.138;2023-03-04T04:23:04;100872.28;;;7.98;58.14
12182;BME280;6154;51.550;12.138;2023-03-04T04:25:34;100866.22;;;7.96;58.44
12182;BME280;6154;51.550;12.138;2023-03-04T04:28:02;100872.59;;;7.89;58.59
12182;BME280;6154;51.550;12.138;2023-03-04T04:30:30;100874.19;;;7.95;58.47
12182;BME280;6154;51.550;12.138;2023-03-04T04:32:58;100868.72;;;7.99;58.32
12182;BME280;6154;51.550;12.138;2023-03-04T04:35:30;100861.50;;;8.04;58.13
12182;BME280;6154;51.550;12.138;2023-03-04T04:37:59;100868.56;;;8.04;58.18
12182;BME280;6154;51.550;12.138;2023-03-04T04:40:27;100860.59;;;8.05;58.21
12182;BME280;6154;51.550;12.138;2023-03-04T04:42:57;100865.62;;;8.12;57.97
12182;BME280;6154;51.550;12.138;2023-03-04T04:45:25;100860.41;;;8.10;58.09
12182;BME280;6154;51.550;12.138;2023-03-04T04:47:54;100855.78;;;8.17;57.93
12182;BME280;6154;51.550;12.138;2023-03-04T04:50:23;100862.09;;;8.13;58.02
12182;BME280;6154;51.550;12.138;2023-03-04T04:52:52;100849.41;;;7.99;58.77
12182;BME280;6154;51.550;12.138;2023-03-04T04:55:20;100847.41;;;8.05;58.48
12182;BME280;6154;51.550;12.138;2023-03-04T04:57:49;100851.47;;;8.14;58.18
12182;BME280;6154;51.550;12.138;2023-03-04T05:00:19;100850.63;;;8.14;58.27
12182;BME280;6154;51.550;12.138;2023-03-04T05:02:47;100853.87;;;7.97;59.00
12182;BME280;6154;51.550;12.138;2023-03-04T05:05:16;100847.88;;;8.17;58.19
12182;BME280;6154;51.550;12.138;2023-03-04T05:07:44;100849.34;;;8.00;58.60
12182;BME280;6154;51.550;12.138;2023-03-04T05:10:13;100836.81;;;8.07;58.71
12182;BME280;6154;51.550;12.138;2023-03-04T05:12:43;100843.56;;;8.14;58.51
12182;BME280;6154;51.550;12.138;2023-03-04T05:15:11;100840.59;;;8.23;58.13
12182;BME280;6154;51.550;12.138;2023-03-04T05:17:40;100841.50;;;7.99;58.97
12182;BME280;6154;51.550;12.138;2023-03-04T05:20:10;100831.41;;;8.10;58.58
12182;BME280;6154;51.550;12.138;2023-03-04T05:22:38;100832.41;;;8.07;58.87
12182;BME280;6154;51.550;12.138;2023-03-04T05:25:07;100835.59;;;8.16;58.53
12182;BME280;6154;51.550;12.138;2023-03-04T05:27:36;100832.59;;;8.03;59.07
12182;BME280;6154;51.550;12.138;2023-03-04T05:30:05;100837.25;;;8.18;58.68
12182;BME280;6154;51.550;12.138;2023-03-04T05:32:34;100832.97;;;8.16;58.84
12182;BME280;6154;51.550;12.138;2023-03-04T05:35:04;100830.91;;;8.24;58.40
12182;BME280;6154;51.550;12.138;2023-03-04T05:37:33;100832.75;;;8.22;58.32
12182;BME280;6154;51.550;12.138;2023-03-04T05:40:02;100831.41;;;8.10;58.48
12182;BME280;6154;51.550;12.138;2023-03-04T05:42:31;100830.63;;;8.30;58.18
12182;BME280;6154;51.550;12.138;2023-03-04T05:44:59;100829.69;;;8.32;58.10
12182;BME280;6154;51.550;12.138;2023-03-04T05:47:27;100829.53;;;8.37;58.00
12182;BME280;6154;51.550;12.138;2023-03-04T05:49:55;100824.97;;;8.41;57.84
12182;BME280;6154;51.550;12.138;2023-03-04T05:52:25;100835.91;;;8.30;58.33
12182;BME280;6154;51.550;12.138;2023-03-04T05:54:53;100822.78;;;8.28;58.23
12182;BME280;6154;51.550;12.138;2023-03-04T05:57:21;100822.47;;;8.38;58.09
12182;BME280;6154;51.550;12.138;2023-03-04T05:59:49;100825.44;;;8.28;58.35
12182;BME280;6154;51.550;12.138;2023-03-04T06:02:17;100819.66;;;8.42;57.89
12182;BME280;6154;51.550;12.138;2023-03-04T06:04:46;100820.75;;;8.37;58.21
12182;BME280;6154;51.550;12.138;2023-03-04T06:07:14;100823.19;;;8.41;57.94
12182;BME280;6154;51.550;12.138;2023-03-04T06:09:43;100827.88;;;8.34;58.26
12182;BME280;6154;51.550;12.138;2023-03-04T06:12:12;100834.00;;;8.35;58.18
12182;BME280;6154;51.550;12.138;2023-03-04T06:14:40;100821.13;;;8.49;57.81
12182;BME280;6154;51.550;12.138;2023-03-04T06:17:08;100829.09;;;8.48;57.85
12182;BME280;6154;51.550;12.138;2023-03-04T06:19:36;100835.00;;;8.54;57.70
12182;BME280;6154;51.550;12.138;2023-03-04T06:22:04;100830.44;;;8.58;57.63
12182;BME280;6154;51.550;12.138;2023-03-04T06:24:32;100834.31;;;8.49;58.19
12182;BME280;6154;51.550;12.138;2023-03-04T06:27:03;100834.22;;;8.52;57.98
12182;BME280;6154;51.550;12.138;2023-03-04T06:29:31;100837.69;;;8.53;58.21
12182;BME280;6154;51.550;12.138;2023-03-04T06:31:59;100830.22;;;8.64;57.90
12182;BME280;6154;51.550;12.138;2023-03-04T06:34:28;100834.50;;;8.67;57.90
12182;BME280;6154;51.550;12.138;2023-03-04T06:36:56;100837.94;;;8.69;57.90
12182;BME280;6154;51.550;12.138;2023-03-04T06:39:24;100838.62;;;8.74;57.83
12182;BME280;6154;51.550;12.138;2023-03-04T06:41:52;100840.19;;;8.78;57.75
12182;BME280;6154;51.550;12.138;2023-03-04T06:44:25;100840.87;;;8.83;57.78
12182;BME280;6154;51.550;12.138;2023-03-04T06:47:03;100838.47;;;8.77;58.37
12182;BME280;6154;51.550;12.138;2023-03-04T06:49:31;100830.69;;;8.74;58.58
12182;BME280;6154;51.550;12.138;2023-03-04T06:51:59;100840.97;;;8.80;58.33
12182;BME280;6154;51.550;12.138;2023-03-04T06:54:28;100832.91;;;8.62;59.51
12182;BME280;6154;51.550;12.138;2023-03-04T06:56:57;100840.97;;;8.80;58.81
12182;BME280;6154;51.550;12.138;2023-03-04T06:59:28;100842.97;;;8.75;59.26
12182;BME280;6154;51.550;12.138;2023-03-04T07:01:57;100844.31;;;8.85;59.04
12182;BME280;6154;51.550;12.138;2023-03-04T07:04:29;100835.31;;;8.89;59.08
12182;BME280;6154;51.550;12.138;2023-03-04T07:07:00;100833.34;;;8.74;60.11
12182;BME280;6154;51.550;12.138;2023-03-04T07:09:31;100836.84;;;8.74;59.99
12182;BME280;6154;51.550;12.138;2023-03-04T07:12:03;100824.28;;;8.79;59.78
12182;BME280;6154;51.550;12.138;2023-03-04T07:14:33;100826.03;;;9.01;59.67
12182;BME280;6154;51.550;12.138;2023-03-04T07:17:02;100836.00;;;8.94;60.16
12182;BME280;6154;51.550;12.138;2023-03-04T07:19:30;100831.28;;;9.02;59.87
12182;BME280;6154;51.550;12.138;2023-03-04T07:21:59;100834.97;;;9.18;59.41
12182;BME280;6154;51.550;12.138;2023-03-04T07:24:27;100831.75;;;9.12;59.92
12182;BME280;6154;51.550;12.138;2023-03-04T07:26:55;100835.72;;;9.22;59.44
12182;BME280;6154;51.550;12.138;2023-03-04T07:29:23;100823.28;;;9.24;59.34
12182;BME280;6154;51.550;12.138;2023-03-04T07:31:53;100836.87;;;9.15;59.87
12182;BME280;6154;51.550;12.138;2023-03-04T07:34:21;100838.84;;;9.10;59.72
12182;BME280;6154;51.550;12.138;2023-03-04T07:36:49;100844.06;;;9.32;59.23
12182;BME280;6154;51.550;12.138;2023-03-04T07:39:17;100838.13;;;9.06;60.20
12182;BME280;6154;51.550;12.138;2023-03-04T07:41:45;100845.00;;;9.31;59.54
12182;BME280;6154;51.550;12.138;2023-03-04T07:44:13;100847.13;;;9.43;59.09
12182;BME280;6154;51.550;12.138;2023-03-04T07:46:42;100841.63;;;9.47;59.10
12182;BME280;6154;51.550;12.138;2023-03-04T07:49:12;100844.19;;;9.49;59.11
12182;BME280;6154;51.550;12.138;2023-03-04T07:51:40;100847.16;;;9.62;58.71
12182;BME280;6154;51.550;12.138;2023-03-04T07:54:09;100840.84;;;9.45;59.49
12182;BME280;6154;51.550;12.138;2023-03-04T07:56:38;100837.47;;;9.62;59.19
12182;BME280;6154;51.550;12.138;2023-03-04T07:59:06;100836.72;;;9.59;59.28
12182;BME280;6154;51.550;12.138;2023-03-04T08:01:36;100831.72;;;9.53;59.73
12182;BME280;6154;51.550;12.138;2023-03-04T08:04:05;100829.91;;;9.73;59.26
12182;BME280;6154;51.550;12.138;2023-03-04T08:06:35;100825.94;;;9.84;59.10
12182;BME280;6154;51.550;12.138;2023-03-04T08:09:05;100829.34;;;9.86;59.18
12182;BME280;6154;51.550;12.138;2023-03-04T08:11:35;100830.72;;;9.94;59.08
12182;BME280;6154;51.550;12.138;2023-03-04T08:14:04;100828.00;;;9.96;58.92
12182;BME280;6154;51.550;12.138;2023-03-04T08:16:32;100829.38;;;10.04;58.67
12182;BME280;6154;51.550;12.138;2023-03-04T08:19:02;100827.09;;;10.16;58.44
12182;BME280;6154;51.550;12.138;2023-03-04T08:21:31;100826.56;;;10.07;58.85
12182;BME280;6154;51.550;12.138;2023-03-04T08:24:01;100820.50;;;9.87;59.40
12182;BME280;6154;51.550;12.138;2023-03-04T08:26:37;100823.50;;;10.17;58.73
12182;BME280;6154;51.550;12.138;2023-03-04T08:29:08;100830.34;;;10.21;58.80
12182;BME280;6154;51.550;12.138;2023-03-04T08:31:37;100825.41;;;10.33;58.51
12182;BME280;6154;51.550;12.138;2023-03-04T08:34:06;100819.69;;;10.24;58.61
12182;BME280;6154;51.550;12.138;2023-03-04T08:36:36;100822.06;;;10.09;58.88
12182;BME280;6154;51.550;12.138;2023-03-04T08:39:05;100819.28;;;10.31;58.25
12182;BME280;6154;51.550;12.138;2023-03-04T08:41:33;100815.34;;;10.21;58.24
12182;BME280;6154;51.550;12.138;2023-03-04T08:44:02;100819.16;;;10.16;58.47
12182;BME280;6154;51.550;12.138;2023-03-04T08:46:30;100817.47;;;10.33;58.09
12182;BME280;6154;51.550;12.138;2023-03-04T08:48:58;100822.88;;;10.30;58.53
12182;BME280;6154;51.550;12.138;2023-03-04T08:51:26;100817.28;;;10.55;58.11
12182;BME280;6154;51.550;12.138;2023-03-04T08:53:55;100819.06;;;10.72;57.89
12182;BME280;6154;51.550;12.138;2023-03-04T08:56:24;100817.03;;;10.60;58.15
12182;BME280;6154;51.550;12.138;2023-03-04T08:58:52;100808.72;;;10.68;57.79
12182;BME280;6154;51.550;12.138;2023-03-04T09:01:20;100802.75;;;10.64;57.64
12182;BME280;6154;51.550;12.138;2023-03-04T09:03:49;100810.75;;;10.62;58.05
12182;BME280;6154;51.550;12.138;2023-03-04T09:06:17;100801.75;;;10.84;57.67
12182;BME280;6154;51.550;12.138;2023-03-04T09:08:45;100809.13;;;10.77;57.52
12182;BME280;6154;51.550;12.138;2023-03-04T09:11:14;100802.69;;;11.00;57.67
12182;BME280;6154;51.550;12.138;2023-03-04T09:13:43;100806.34;;;11.15;57.39
12182;BME280;6154;51.550;12.138;2023-03-04T09:16:13;100809.75;;;11.00;57.79
12182;BME280;6154;51.550;12.138;2023-03-04T09:18:42;100805.50;;;10.97;57.80
12182;BME280;6154;51.550;12.138;2023-03-04T09:21:10;100807.59;;;11.25;57.45
12182;BME280;6154;51.550;12.138;2023-03-04T09:23:38;100804.75;;;11.45;57.25
12182;BME280;6154;51.550;12.138;2023-03-04T09:26:15;100809.59;;;11.37;57.21
12182;BME280;6154;51.550;12.138;2023-03-04T09:28:44;100796.78;;;11.63;56.92
12182;BME280;6154;51.550;12.138;2023-03-04T09:31:13;100799.91;;;11.54;56.93
12182;BME280;6154;51.550;12.138;2023-03-04T09:33:41;100799.53;;;11.44;56.84
12182;BME280;6154;51.550;12.138;2023-03-04T09:36:11;100808.22;;;11.13;57.45
12182;BME280;6154;51.550;12.138;2023-03-04T09:38:40;100806.72;;;11.75;57.02
12182;BME280;6154;51.550;12.138;2023-03-04T09:41:14;100800.59;;;11.57;57.13
12182;BME280;6154;51.550;12.138;2023-03-04T09:43:45;100795.78;;;11.48;57.25
12182;BME280;6154;51.550;12.138;2023-03-04T09:46:15;100797.88;;;11.59;56.64
12182;BME280;6154;51.550;12.138;2023-03-04T09:48:47;100798.44;;;11.31;57.48
12182;BME280;6154;51.550;12.138;2023-03-04T09:51:20;100795.50;;;11.70;56.70
12182;BME280;6154;51.550;12.138;2023-03-04T09:54:04;100797.75;;;11.77;56.68
12182;BME280;6154;51.550;12.138;2023-03-04T09:56:36;100793.37;;;11.76;56.30
12182;BME280;6154;51.550;12.138;2023-03-04T09:59:15;100790.19;;;11.70;56.86
12182;BME280;6154;51.550;12.138;2023-03-04T10:01:48;100791.97;;;11.54;56.77
12182;BME280;6154;51.550;12.138;2023-03-04T10:04:28;100790.19;;;11.70;56.72
12182;BME280;6154;51.550;12.138;2023-03-04T10:06:59;100781.19;;;11.90;56.06
12182;BME280;6154;51.550;12.138;2023-03-04T10:09:31;100789.69;;;11.79;56.70
12182;BME280;6154;51.550;12.138;2023-03-04T10:12:08;100777.84;;;11.86;56.60
12182;BME280;6154;51.550;12.138;2023-03-04T10:14:43;100782.53;;;11.81;57.06
12182;BME280;6154;51.550;12.138;2023-03-04T10:17:20;100785.19;;;11.31;57.98
12182;BME280;6154;51.550;12.138;2023-03-04T10:19:58;100779.47;;;11.56;57.89
12182;BME280;6154;51.550;12.138;2023-03-04T10:22:33;100783.63;;;11.77;57.56
12182;BME280;6154;51.550;12.138;2023-03-04T10:25:14;100782.94;;;11.40;58.03
12182;BME280;6154;51.550;12.138;2023-03-04T10:27:49;100778.59;;;11.72;57.59
12182;BME280;6154;51.550;12.138;2023-03-04T10:30:29;100778.22;;;11.63;57.43
12182;BME280;6154;51.550;12.138;2023-03-04T10:32:57;100767.44;;;11.83;56.58
12182;BME280;6154;51.550;12.138;2023-03-04T10:35:31;100777.84;;;11.86;56.41
12182;BME280;6154;51.550;12.138;2023-03-04T10:38:02;100773.56;;;11.99;56.20
12182;BME280;6154;51.550;12.138;2023-03-04T10:40:36;100770.25;;;12.12;56.07
12182;BME280;6154;51.550;12.138;2023-03-04T10:43:08;100767.94;;;12.05;56.17
12182;BME280;6154;51.550;12.138;2023-03-04T10:45:41;100758.97;;;12.24;56.26
12182;BME280;6154;51.550;12.138;2023-03-04T10:48:18;100767.06;;;11.89;56.37
12182;BME280;6154;51.550;12.138;2023-03-04T10:50:47;100764.06;;;12.11;56.26
12182;BME280;6154;51.550;12.138;2023-03-04T10:53:30;100770.94;;;11.84;56.54
12182;BME280;6154;51.550;12.138;2023-03-04T10:56:00;100761.41;;;11.79;56.57
12182;BME280;6154;51.550;12.138;2023-03-04T10:58:33;100751.75;;;12.10;56.00
12182;BME280;6154;51.550;12.138;2023-03-04T11:01:04;100762.53;;;11.91;55.76
12182;BME280;6154;51.550;12.138;2023-03-04T11:03:34;100763.59;;;11.71;55.82
12182;BME280;6154;51.550;12.138;2023-03-04T11:06:10;100763.41;;;11.59;55.86
12182;BME280;6154;51.550;12.138;2023-03-04T11:08:39;100761.31;;;11.81;55.19
12182;BME280;6154;51.550;12.138;2023-03-04T11:11:22;100764.16;;;11.45;55.35
12182;BME280;6154;51.550;12.138;2023-03-04T11:13:52;100771.88;;;11.65;54.66
12182;BME280;6154;51.550;12.138;2023-03-04T11:16:26;100764.09;;;11.95;54.93
12182;BME280;6154;51.550;12.138;2023-03-04T11:18:59;100767.31;;;12.00;54.05
12182;BME280;6154;51.550;12.138;2023-03-04T11:21:35;100758.63;;;11.65;54.15
12182;BME280;6154;51.550;12.138;2023-03-04T11:24:10;100756.03;;;12.28;53.89
12182;BME280;6154;51.550;12.138;2023-03-04T11:27:00;100751.09;;;12.06;53.62
12182;BME280;6154;51.550;12.138;2023-03-04T11:29:33;100745.63;;;11.94;53.47
12182;BME280;6154;51.550;12.138;2023-03-04T11:32:09;100756.06;;;12.13;53.63
12182;BME280;6154;51.550;12.138;2023-03-04T11:34:47;100746.44;;;12.10;53.91
12182;BME280;6154;51.550;12.138;2023-03-04T11:37:21;100748.06;;;12.28;53.10
12182;BME280;6154;51.550;12.138;2023-03-04T11:39:55;100742.88;;;11.95;53.25
12182;BME280;6154;51.550;12.138;2023-03-04T11:42:32;100744.81;;;11.92;54.48
12182;BME280;6154;51.550;12.138;2023-03-04T11:45:02;100738.34;;;11.97;54.37
12182;BME280;6154;51.550;12.138;2023-03-04T11:47:43;100751.09;;;12.06;54.47
12182;BME280;6154;51.550;12.138;2023-03-04T11:50:24;100740.28;;;12.09;53.98
12182;BME280;6154;51.550;12.138;2023-03-04T11:53:30;100741.28;;;12.38;53.92
12182;BME280;6154;51.550;12.138;2023-03-04T11:56:23;100744.75;;;12.09;54.42
12182;BME280;6154;51.550;12.138;2023-03-04T11:59:22;100734.12;;;12.09;55.11
12182;BME280;6154;51.550;12.138;2023-03-04T12:02:01;100727.72;;;11.97;54.85
12182;BME280;6154;51.550;12.138;2023-03-04T12:05:20;100731.16;;;11.84;55.17
12182;BME280;6154;51.550;12.138;2023-03-04T12:08:07;100727.22;;;12.06;54.89
12182;BME280;6154;51.550;12.138;2023-03-04T12:10:41;100728.13;;;12.21;54.39
12182;BME280;6154;51.550;12.138;2023-03-04T12:13:24;100720.81;;;12.71;54.13
12182;BME280;6154;51.550;12.138;2023-03-04T12:16:14;100716.38;;;12.41;54.14
12182;BME280;6154;51.550;12.138;2023-03-04T12:18:55;100712.75;;;12.42;53.04
12182;BME280;6154;51.550;12.138;2023-03-04T12:21:53;100707.94;;;12.34;52.91
12182;BME280;6154;51.550;12.138;2023-03-04T12:24:40;100711.16;;;12.70;52.56
12182;BME280;6154;51.550;12.138;2023-03-04T12:27:20;100703.19;;;12.70;52.63
12182;BME280;6154;51.550;12.138;2023-03-04T12:29:56;100691.78;;;12.53;52.24
12182;BME280;6154;51.550;12.138;2023-03-04T12:32:33;100699.69;;;12.39;52.46
12182;BME280;6154;51.550;12.138;2023-03-04T12:35:17;100684.44;;;12.73;51.97
12182;BME280;6154;51.550;12.138;2023-03-04T12:38:11;100698.78;;;12.54;52.39
12182;BME280;6154;51.550;12.138;2023-03-04T12:40:48;100691.06;;;12.65;52.37
12182;BME280;6154;51.550;12.138;2023-03-04T12:43:38;100696.91;;;12.56;52.61
12182;BME280;6154;51.550;12.138;2023-03-04T12:46:18;100686.72;;;12.49;52.71
12182;BME280;6154;51.550;12.138;2023-03-04T12:48:59;100685.53;;;12.69;52.40
12182;BME280;6154;51.550;12.138;2023-03-04T12:51:33;100680.69;;;12.31;52.82
12182;BME280;6154;51.550;12.138;2023-03-04T12:54:16;100674.81;;;12.26;53.16
12182;BME280;6154;51.550;12.138;2023-03-04T12:56:53;100683.31;;;12.91;52.68
12182;BME280;6154;51.550;12.138;2023-03-04T12:59:25;100682.28;;;12.49;53.10
12182;BME280;6154;51.550;12.138;2023-03-04T13:02:01;100672.22;;;12.99;52.98
12182;BME280;6154;51.550;12.138;2023-03-04T13:04:43;100677.44;;;12.86;52.65
12182;BME280;6154;51.550;12.138;2023-03-04T13:07:25;100672.41;;;12.51;53.13
12182;BME280;6154;51.550;12.138;2023-03-04T13:10:06;100670.38;;;12.71;52.85
12182;BME280;6154;51.550;12.138;2023-03-04T13:12:48;100670.59;;;13.10;52.82
12182;BME280;6154;51.550;12.138;2023-03-04T13:15:29;100680.19;;;12.84;52.42
12182;BME280;6154;51.550;12.138;2023-03-04T13:17:59;100677.19;;;12.60;52.00
12182;BME280;6154;51.550;12.138;2023-03-04T13:20:34;100679.62;;;12.49;52.66